Time;durP1;ratioP1;P1;durP2;ratioP2;P2;SDS_P1;SDS_P2;PMS_P1;PMS_P2;Temp;Humidity;BMP_temperature;BMP_pressure;BME280_temperature;BME280_humidity;BME280_pressure;Samples;Min_cycle;Max_cycle;Signal;HPM_P1;HPM_P2
2021/12/27 00:00:08;;;;;;;31.42;23.88;;;;;;;3.91;100.00;99180.34;5029453;28;20127;-59
2021/12/27 00:02:33;;;;;;;39.58;28.30;;;;;;;3.93;100.00;99167.28;5027775;28;20055;-59
2021/12/27 00:04:58;;;;;;;32.33;24.40;;;;;;;3.93;100.00;99169.88;5027343;28;20978;-59
2021/12/27 00:07:24;;;;;;;39.42;28.17;;;;;;;3.78;100.00;99145.44;5029302;28;20044;-59
2021/12/27 00:09:49;;;;;;;35.58;25.05;;;;;;;3.94;100.00;99172.44;5029200;28;20050;-59
2021/12/27 00:12:15;;;;;;;42.78;26.02;;;;;;;3.94;100.00;99180.22;5028399;28;20874;-59
2021/12/27 00:14:40;;;;;;;38.03;25.67;;;;;;;3.93;100.00;99178.53;5029443;28;20907;-59
2021/12/27 00:17:06;;;;;;;40.53;27.52;;;;;;;3.93;100.00;99178.53;5028108;28;20086;-59
2021/12/27 00:19:32;;;;;;;36.45;25.95;;;;;;;3.91;100.00;99169.97;5045884;28;20905;-59
2021/12/27 00:21:57;;;;;;;36.88;24.35;;;;;;;3.96;100.00;99165.41;5028905;28;20032;-59
2021/12/27 00:24:22;;;;;;;36.05;23.98;;;;;;;4.00;100.00;99171.31;5027800;28;20020;-59
2021/12/27 00:26:48;;;;;;;29.92;23.27;;;;;;;3.74;100.00;99123.09;5029362;28;20091;-59
2021/12/27 00:29:15;;;;;;;34.75;25.10;;;;;;;4.03;100.00;99166.81;5027940;28;20028;-59
2021/12/27 00:31:41;;;;;;;51.28;29.90;;;;;;;4.06;100.00;99160.63;5029282;28;20039;-59
2021/12/27 00:34:06;;;;;;;42.38;27.08;;;;;;;4.10;100.00;99162.19;5027537;28;20131;-59
2021/12/27 00:36:32;;;;;;;38.05;28.05;;;;;;;4.09;100.00;99161.34;5029073;28;20071;-59
2021/12/27 00:38:57;;;;;;;32.60;25.45;;;;;;;4.10;100.00;99157.84;5027931;28;20032;-59
2021/12/27 00:41:22;;;;;;;36.05;26.30;;;;;;;4.11;100.00;99148.31;5029076;28;20861;-59
2021/12/27 00:43:48;;;;;;;42.55;27.50;;;;;;;4.11;100.00;99154.34;5027693;28;20051;-58
2021/12/27 00:46:13;;;;;;;34.72;26.63;;;;;;;4.09;100.00;99155.31;5028692;28;20035;-59
2021/12/27 00:48:39;;;;;;;38.25;26.35;;;;;;;4.07;100.00;99137.19;5027483;28;20032;-57
2021/12/27 00:51:04;;;;;;;39.95;26.98;;;;;;;4.09;100.00;99139.72;5028461;28;20029;-58
2021/12/27 00:53:30;;;;;;;38.33;26.58;;;;;;;4.09;100.00;99143.16;5027087;28;20095;-58
2021/12/27 00:55:55;;;;;;;36.22;27.02;;;;;;;4.09;100.00;99143.16;5029066;28;20044;-57
2021/12/27 00:58:21;;;;;;;43.72;28.45;;;;;;;4.08;100.00;99133.69;5029074;28;20028;-57
2021/12/27 01:00:47;;;;;;;44.50;28.73;;;;;;;4.13;100.00;99142.13;5028446;28;20032;-57
2021/12/27 01:03:12;;;;;;;45.75;30.05;;;;;;;4.13;100.00;99136.91;5029560;28;20039;-57
2021/12/27 01:05:38;;;;;;;36.20;25.30;;;;;;;3.84;100.00;99088.00;5027885;28;20025;-57
2021/12/27 01:08:05;;;;;;;38.83;28.23;;;;;;;4.13;100.00;99134.31;5028562;28;20502;-57
2021/12/27 01:13:39;;;;;;;35.10;26.42;;;;;;;4.10;100.00;99126.66;5027069;28;20040;-59
2021/12/27 01:16:12;;;;;;;37.65;25.27;;;;;;;4.16;100.00;99132.53;5028057;28;20056;-59
2021/12/27 01:18:41;;;;;;;37.95;26.48;;;;;;;4.16;100.00;99119.53;5013048;28;20029;-58
2021/12/27 01:21:07;;;;;;;35.60;26.30;;;;;;;4.18;100.00;99128.94;5027596;28;20086;-58
2021/12/27 01:23:33;;;;;;;38.53;26.35;;;;;;;4.17;100.00;99123.78;5028121;28;20034;-58
2021/12/27 01:25:58;;;;;;;32.25;24.95;;;;;;;4.14;100.00;99127.38;5026595;28;20028;-58
2021/12/27 01:28:24;;;;;;;32.60;23.42;;;;;;;4.13;100.00;99126.53;5028036;28;20037;-59
2021/12/27 01:30:50;;;;;;;33.92;25.00;;;;;;;4.11;100.00;99120.56;5026985;28;20134;-58
2021/12/27 01:33:20;;;;;;;36.20;23.75;;;;;;;4.10;100.00;99121.47;5027842;28;20110;-58
2021/12/27 01:35:47;;;;;;;40.30;26.17;;;;;;;4.07;100.00;99121.59;5027611;28;20033;-58
2021/12/27 01:38:13;;;;;;;37.75;24.58;;;;;;;4.05;100.00;99126.03;5026618;28;20028;-58
2021/12/27 01:40:40;;;;;;;33.53;24.52;;;;;;;4.06;100.00;99124.25;5027795;28;20025;-59
2021/12/27 01:43:09;;;;;;;36.40;25.23;;;;;;;4.08;100.00;99125.06;5027813;28;20127;-58
2021/12/27 01:45:37;;;;;;;28.02;22.75;;;;;;;4.08;100.00;99123.31;5026132;28;20039;-58
2021/12/27 01:48:03;;;;;;;32.95;23.77;;;;;;;4.00;100.00;99098.56;5027663;28;20024;-58
2021/12/27 01:50:29;;;;;;;33.15;22.67;;;;;;;4.12;100.00;99118.81;5026422;28;20031;-58
2021/12/27 01:52:54;;;;;;;48.13;24.00;;;;;;;4.16;100.00;99114.31;5026154;28;20035;-58
2021/12/27 01:55:20;;;;;;;28.83;22.40;;;;;;;4.16;100.00;99109.94;5041420;28;20035;-59
2021/12/27 01:57:46;;;;;;;33.47;23.17;;;;;;;4.21;100.00;99114.94;5025948;28;20038;-59
2021/12/27 02:00:12;;;;;;;28.25;21.40;;;;;;;4.23;100.00;99110.50;5010401;28;20036;-59
2021/12/27 02:02:38;;;;;;;35.53;22.80;;;;;;;4.29;100.00;99110.25;5027008;28;20034;-59
2021/12/27 02:05:03;;;;;;;28.25;20.38;;;;;;;4.31;100.00;99113.63;5027923;28;20025;-59
2021/12/27 02:07:29;;;;;;;30.52;22.38;;;;;;;4.34;100.00;99110.88;5027311;28;20799;-59
2021/12/27 02:10:02;;;;;;;25.80;21.08;;;;;;;4.37;100.00;99113.31;5025988;28;20795;-58
2021/12/27 02:12:29;;;;;;;29.85;22.10;;;;;;;4.42;100.00;99116.56;5027458;28;20139;-58
2021/12/27 02:14:54;;;;;;;27.63;22.05;;;;;;;4.45;100.00;99113.84;5009952;28;20064;-58
2021/12/27 02:17:20;;;;;;;31.35;21.00;;;;;;;4.48;100.00;99119.75;5026665;28;20031;-58
2021/12/27 02:19:50;;;;;;;31.23;21.58;;;;;;;4.49;100.00;99115.38;5026508;28;20316;-58
2021/12/27 02:22:15;;;;;;;31.35;22.58;;;;;;;4.52;100.00;99110.88;5027107;28;20046;-58
2021/12/27 02:24:40;;;;;;;29.63;22.23;;;;;;;4.55;100.00;99122.91;5027041;28;20021;-58
2021/12/27 02:27:07;;;;;;;28.45;21.55;;;;;;;4.56;100.00;99109.00;5024705;28;20139;-58
2021/12/27 02:29:32;;;;;;;29.65;22.90;;;;;;;4.58;100.00;99112.34;5026015;28;20204;-59
2021/12/27 02:31:58;;;;;;;32.95;22.38;;;;;;;4.58;100.00;99112.34;5027275;28;20845;-59
2021/12/27 02:34:24;;;;;;;31.23;20.13;;;;;;;4.59;100.00;99104.50;5025664;28;20021;-58
2021/12/27 02:36:49;;;;;;;27.80;20.77;;;;;;;4.61;100.00;99107.00;5025845;28;20086;-59
2021/12/27 02:39:15;;;;;;;27.08;20.02;;;;;;;4.61;100.00;99097.44;4993290;28;20445;-59
2021/12/27 02:41:41;;;;;;;28.33;20.00;;;;;;;4.64;100.00;99104.25;5026691;28;20034;-58
2021/12/27 02:44:06;;;;;;;26.65;18.60;;;;;;;4.64;100.00;99096.44;5025699;28;20977;-58
2021/12/27 02:46:31;;;;;;;27.40;19.38;;;;;;;4.62;100.00;99087.88;5027959;28;20024;-58
2021/12/27 02:48:57;;;;;;;32.85;21.42;;;;;;;4.62;100.00;99090.47;5026758;28;20030;-59
2021/12/27 02:51:22;;;;;;;27.38;20.10;;;;;;;4.59;100.00;99088.88;5027058;28;20032;-58
2021/12/27 02:53:48;;;;;;;35.10;19.00;;;;;;;4.58;100.00;99086.34;5026266;28;20857;-59
2021/12/27 02:56:14;;;;;;;28.02;19.27;;;;;;;4.57;100.00;99087.25;5026407;28;20025;-58
2021/12/27 02:58:40;;;;;;;30.38;19.67;;;;;;;4.57;100.00;99089.84;5025916;28;20024;-58
2021/12/27 03:01:11;;;;;;;29.92;20.05;;;;;;;4.57;100.00;99075.09;5026574;28;20033;-58
2021/12/27 03:03:37;;;;;;;25.08;18.83;;;;;;;4.59;100.00;99080.22;5025096;28;20032;-58
2021/12/27 03:06:03;;;;;;;24.33;19.52;;;;;;;4.60;100.00;99089.69;5026955;28;20114;-58
2021/12/27 03:08:29;;;;;;;24.52;18.52;;;;;;;4.61;100.00;99086.19;5026386;28;20094;-58
2021/12/27 03:10:57;;;;;;;25.58;17.45;;;;;;;4.57;100.00;99074.25;5025708;28;20842;-58
2021/12/27 03:13:28;;;;;;;25.30;17.45;;;;;;;4.66;100.00;99079.03;5028160;28;20036;-59
2021/12/27 03:16:10;;;;;;;25.05;19.00;;;;;;;4.69;100.00;99078.88;5026624;28;20041;-58
2021/12/27 03:18:38;;;;;;;28.02;18.52;;;;;;;4.70;100.00;99077.94;5026254;28;20051;-58
2021/12/27 03:21:04;;;;;;;22.80;16.98;;;;;;;4.72;100.00;99076.13;5025425;28;20028;-58
2021/12/27 03:23:30;;;;;;;23.58;16.23;;;;;;;4.73;100.00;99069.97;5026045;28;20048;-58
2021/12/27 03:25:55;;;;;;;20.88;17.20;;;;;;;4.72;100.00;99070.06;5026293;28;20036;-58
2021/12/27 03:28:21;;;;;;;25.35;17.63;;;;;;;4.72;100.00;99065.72;5026430;28;20831;-58
2021/12/27 03:30:48;;;;;;;19.95;16.83;;;;;;;4.72;100.00;99068.31;5026776;28;20052;-58
2021/12/27 03:33:14;;;;;;;26.48;16.95;;;;;;;4.71;100.00;99061.44;5026439;28;20128;-59
2021/12/27 03:35:48;;;;;;;23.38;17.83;;;;;;;4.69;100.00;99055.47;5025932;28;20037;-58
2021/12/27 03:38:14;;;;;;;;;;;;;;;4.67;100.00;99053.84;5028147;28;20067;-58
2021/12/27 03:40:40;;;;;;;24.25;17.58;;;;;;;4.64;100.00;99052.22;5029960;28;19909;-58
2021/12/27 03:43:05;;;;;;;23.33;17.25;;;;;;;4.59;100.00;99049.00;5029988;28;20064;-58
2021/12/27 03:45:34;;;;;;;24.13;17.33;;;;;;;4.58;100.00;99057.72;5028471;28;20079;-58
2021/12/27 03:47:59;;;;;;;20.35;16.35;;;;;;;4.55;100.00;99050.06;5028462;28;20083;-58
2021/12/27 03:50:25;;;;;;;25.38;18.55;;;;;;;4.52;100.00;99042.41;5028221;28;20032;-58
2021/12/27 03:52:55;;;;;;;25.33;17.23;;;;;;;4.52;100.00;99045.03;5029432;28;20025;-58
2021/12/27 03:55:21;;;;;;;25.60;16.95;;;;;;;4.34;100.00;99015.53;5029545;28;20029;-58
2021/12/27 03:57:55;;;;;;;22.58;17.35;;;;;;;4.26;100.00;99006.41;5030238;28;20122;-58
2021/12/27 04:02:53;;;;;;;22.35;17.23;;;;;;;4.48;100.00;99048.69;5028176;28;20135;-58
2021/12/27 04:05:20;;;;;;;21.40;15.85;;;;;;;4.49;100.00;99048.63;5027974;28;20168;-58
2021/12/27 04:07:55;;;;;;;22.85;18.13;;;;;;;4.50;100.00;99041.63;5029375;28;20059;-58
2021/12/27 04:10:21;;;;;;;26.73;16.85;;;;;;;4.18;100.00;98985.13;5029569;28;20024;-58
2021/12/27 04:12:46;;;;;;;25.65;17.40;;;;;;;4.48;100.00;99033.91;5029233;28;20039;-58
2021/12/27 04:15:11;;;;;;;22.15;15.80;;;;;;;4.47;100.00;99028.78;5029753;28;20129;-58
2021/12/27 04:17:37;;;;;;;20.92;16.40;;;;;;;4.49;100.00;99029.56;5027900;28;20029;-58
2021/12/27 04:20:04;;;;;;;23.98;16.83;;;;;;;4.35;100.00;99001.63;5029294;28;20087;-59
2021/12/27 04:22:33;;;;;;;28.10;15.77;;;;;;;4.49;100.00;99019.16;5029292;28;20135;-58
2021/12/27 04:24:58;;;;;;;26.85;17.63;;;;;;;4.52;100.00;99019.00;5029261;28;20211;-58
2021/12/27 04:27:24;;;;;;;22.33;16.40;;;;;;;4.55;100.00;99019.72;5029377;28;21018;-59
2021/12/27 04:29:49;;;;;;;19.10;15.60;;;;;;;4.56;100.00;99015.34;5029135;28;21001;-58
2021/12/27 04:32:14;;;;;;;19.25;15.43;;;;;;;4.30;100.00;98972.38;5027631;28;21088;-58
2021/12/27 04:34:40;;;;;;;19.02;16.02;;;;;;;4.63;100.00;99014.13;5029019;28;20021;-58
2021/12/27 04:37:05;;;;;;;22.25;16.13;;;;;;;4.70;100.00;99022.50;5028995;28;20949;-58
2021/12/27 04:39:31;;;;;;;26.83;15.90;;;;;;;4.73;100.00;99017.94;5028850;28;20083;-58
2021/12/27 04:41:57;;;;;;;21.55;14.60;;;;;;;4.76;100.00;99016.97;5027851;28;20087;-58
2021/12/27 04:44:22;;;;;;;16.58;13.70;;;;;;;4.80;100.00;99023.72;5028673;28;20883;-58
2021/12/27 04:46:48;;;;;;;19.58;15.55;;;;;;;4.85;100.00;99017.38;5028648;28;20088;-58
2021/12/27 04:49:13;;;;;;;18.17;14.55;;;;;;;4.88;100.00;99012.00;5026860;28;20880;-58
2021/12/27 04:51:39;;;;;;;21.10;15.00;;;;;;;4.84;100.00;99005.28;5027464;28;20024;-58
2021/12/27 04:54:04;;;;;;;27.75;15.75;;;;;;;4.92;100.00;99013.56;5028036;28;20024;-58
2021/12/27 04:56:29;;;;;;;28.80;16.02;;;;;;;4.95;100.00;99010.78;5027751;28;20095;-58
2021/12/27 04:58:55;;;;;;;23.55;16.65;;;;;;;5.00;100.00;99016.59;5028646;28;20037;-58
2021/12/27 05:01:22;;;;;;;24.73;16.67;;;;;;;5.03;100.00;99011.28;5043884;28;20916;-58
2021/12/27 05:03:47;;;;;;;21.42;15.20;;;;;;;5.07;100.00;99009.31;5012260;28;20464;-58
2021/12/27 05:06:13;;;;;;;21.90;15.43;;;;;;;5.09;100.00;99010.94;5028068;28;20028;-58
2021/12/27 05:08:40;;;;;;;19.88;16.95;;;;;;;5.12;100.00;99010.78;5027244;28;20039;-58
2021/12/27 05:11:06;;;;;;;20.92;15.88;;;;;;;4.94;100.00;98980.47;5028879;28;20881;-58
2021/12/27 05:13:32;;;;;;;20.67;15.80;;;;;;;5.18;100.00;99006.19;5028810;28;20040;-58
2021/12/27 05:15:59;;;;;;;21.23;15.35;;;;;;;5.21;100.00;99008.63;5028565;28;20117;-58
2021/12/27 05:18:24;;;;;;;23.70;17.48;;;;;;;4.89;100.00;98946.06;5028099;28;20887;-58
2021/12/27 05:20:50;;;;;;;19.95;15.43;;;;;;;5.26;100.00;98997.09;5028058;28;20028;-58
2021/12/27 05:23:15;;;;;;;20.38;15.48;;;;;;;5.26;100.00;98999.69;5027879;28;20028;-58
2021/12/27 05:25:41;;;;;;;21.48;15.95;;;;;;;5.24;100.00;98998.91;5028004;28;20144;-58
2021/12/27 05:28:06;;;;;;;19.25;14.30;;;;;;;5.23;100.00;99006.81;5027879;28;20932;-58
2021/12/27 05:30:31;;;;;;;23.35;15.82;;;;;;;5.18;100.00;99001.81;5027231;28;20024;-58
2021/12/27 05:32:57;;;;;;;19.15;14.05;;;;;;;5.14;100.00;99000.28;5027871;28;20021;-58
2021/12/27 05:35:22;;;;;;;18.75;14.88;;;;;;;5.11;100.00;99001.28;5026688;28;20027;-58
2021/12/27 05:37:48;;;;;;;20.52;14.70;;;;;;;5.09;100.00;99003.16;5027371;28;20043;-58
2021/12/27 05:40:18;;;;;;;17.27;14.00;;;;;;;5.07;100.00;98994.56;5026557;28;20922;-58
2021/12/27 05:42:44;;;;;;;22.45;15.05;;;;;;;5.05;100.00;98992.94;5027531;28;20044;-58
2021/12/27 05:45:09;;;;;;;21.08;14.98;;;;;;;5.04;100.00;98986.91;5026018;28;20036;-58
2021/12/27 05:47:35;;;;;;;22.92;14.40;;;;;;;5.04;100.00;98984.28;5027687;28;21063;-58
2021/12/27 05:50:00;;;;;;;22.00;14.20;;;;;;;5.01;100.00;98981.00;5027533;28;20860;-58
2021/12/27 05:52:26;;;;;;;21.23;15.32;;;;;;;5.00;100.00;98985.38;5026072;28;20135;-58
2021/12/27 05:54:51;;;;;;;19.40;13.77;;;;;;;4.96;100.00;98983.00;5027053;28;20028;-58
2021/12/27 05:57:17;;;;;;;27.90;15.52;;;;;;;4.91;100.00;98980.63;5027308;28;20028;-58
2021/12/27 05:59:42;;;;;;;24.23;15.88;;;;;;;4.85;100.00;98980.94;5027594;28;20073;-58
2021/12/27 06:02:08;;;;;;;19.00;15.13;;;;;;;4.79;100.00;98975.19;5025162;28;20028;-58
2021/12/27 06:04:33;;;;;;;18.27;13.35;;;;;;;4.73;100.00;98976.31;5027027;28;20079;-58
2021/12/27 06:06:58;;;;;;;20.65;14.43;;;;;;;4.66;100.00;98982.78;5025634;28;20067;-58
2021/12/27 06:09:24;;;;;;;19.15;14.38;;;;;;;4.57;100.00;98975.41;5027202;28;20029;-58
2021/12/27 06:11:49;;;;;;;25.90;16.10;;;;;;;4.50;100.00;98979.22;5025871;28;20867;-58
2021/12/27 06:14:14;;;;;;;24.50;15.25;;;;;;;4.42;100.00;98977.00;5027503;28;20082;-58
2021/12/27 06:16:40;;;;;;;25.67;15.65;;;;;;;4.36;100.00;98982.47;5028185;28;20029;-58
2021/12/27 06:19:05;;;;;;;23.23;16.00;;;;;;;4.31;100.00;98984.47;5026887;28;20028;-58
2021/12/27 06:21:33;;;;;;;19.60;14.90;;;;;;;4.24;100.00;98977.88;5027120;28;20040;-58
2021/12/27 06:23:58;;;;;;;18.08;14.57;;;;;;;4.14;100.00;98981.81;5027012;28;20025;-58
2021/12/27 06:26:24;;;;;;;24.42;15.07;;;;;;;4.03;100.00;98977.13;5027103;28;20081;-58
2021/12/27 06:28:49;;;;;;;26.83;15.68;;;;;;;3.92;100.00;98970.75;5027112;28;20020;-58
2021/12/27 06:31:15;;;;;;;20.27;15.80;;;;;;;3.80;100.00;98981.69;5025637;28;20905;-58
2021/12/27 06:33:40;;;;;;;18.75;14.57;;;;;;;3.68;100.00;98975.31;5028051;28;20040;-58
2021/12/27 06:36:05;;;;;;;21.00;16.02;;;;;;;3.60;100.00;98977.41;5027450;28;20037;-58
2021/12/27 06:38:31;;;;;;;22.67;15.43;;;;;;;3.27;100.00;98934.78;5027070;28;20024;-59
2021/12/27 06:40:58;;;;;;;20.95;16.45;;;;;;;3.43;100.00;98965.19;5026889;28;20029;-58
2021/12/27 06:43:23;;;;;;;42.72;17.17;;;;;;;3.34;100.00;98965.59;5026437;28;20027;-58
2021/12/27 06:45:49;;;;;;;88.68;25.23;;;;;;;3.29;100.00;98964.09;5026371;28;20028;-58
2021/12/27 06:48:15;;;;;;;16.23;12.85;;;;;;;2.92;100.00;98913.81;5025175;28;20032;-58
2021/12/27 06:50:41;;;;;;;41.75;15.48;;;;;;;3.00;100.00;98942.88;5025943;28;20063;-58
2021/12/27 06:53:06;;;;;;;41.83;14.85;;;;;;;3.05;100.00;98955.63;5026648;28;20893;-58
2021/12/27 06:55:32;;;;;;;24.35;13.88;;;;;;;2.86;100.00;98928.78;5027058;28;20025;-58
2021/12/27 06:57:57;;;;;;;13.40;11.00;;;;;;;2.89;100.00;98939.88;5026802;28;20024;-58
2021/12/27 07:00:22;;;;;;;27.38;13.23;;;;;;;2.80;100.00;98929.91;5027115;28;20440;-58
2021/12/27 07:02:48;;;;;;;20.88;12.68;;;;;;;2.90;100.00;98943.31;5026563;28;20132;-58
2021/12/27 07:05:13;;;;;;;20.58;13.40;;;;;;;2.97;100.00;98936.97;5026219;28;20134;-58
2021/12/27 07:07:40;;;;;;;14.25;11.30;;;;;;;3.04;100.00;98941.78;5026641;28;20269;-58
2021/12/27 07:10:07;;;;;;;19.10;13.00;;;;;;;3.14;100.00;98934.47;5026152;28;20056;-58
2021/12/27 07:12:33;;;;;;;20.35;15.15;;;;;;;2.75;100.00;98861.81;5025650;28;20039;-58
2021/12/27 07:14:58;;;;;;;22.88;15.48;;;;;;;3.31;100.00;98939.75;5030075;28;20042;-58
2021/12/27 07:17:23;;;;;;;20.02;14.45;;;;;;;3.38;100.00;98933.38;5030031;28;20042;-58
2021/12/27 07:19:49;;;;;;;21.05;14.18;;;;;;;3.44;100.00;98932.28;5029627;28;20136;-58
2021/12/27 07:22:15;;;;;;;20.25;15.15;;;;;;;3.50;100.00;98932.00;5029843;28;20028;-58
2021/12/27 07:24:40;;;;;;;20.77;14.63;;;;;;;3.45;100.00;98907.97;5009743;28;20962;-58
2021/12/27 07:27:06;;;;;;;20.73;14.07;;;;;;;3.55;100.00;98915.28;5028816;28;20028;-58
2021/12/27 07:29:31;;;;;;;18.55;13.13;;;;;;;3.58;100.00;98924.72;5028182;28;20932;-58
2021/12/27 07:31:56;;;;;;;17.52;13.27;;;;;;;3.60;100.00;98922.88;5029021;28;20893;-58
2021/12/27 07:34:24;;;;;;;14.25;11.40;;;;;;;3.61;100.00;98921.97;5030010;28;20024;-58
2021/12/27 07:36:51;;;;;;;17.67;12.23;;;;;;;3.58;100.00;98924.72;5029487;28;20028;-58
2021/12/27 07:39:17;;;;;;;22.95;12.40;;;;;;;3.60;100.00;98928.06;5030315;28;20035;-58
2021/12/27 07:41:43;;;;;;;25.75;13.40;;;;;;;3.73;100.00;98928.34;5029514;28;20059;-58
2021/12/27 07:44:08;;;;;;;16.80;13.13;;;;;;;3.82;100.00;98928.75;5029279;28;20907;-58
2021/12/27 07:46:35;;;;;;;17.95;12.55;;;;;;;3.92;100.00;98930.00;5029412;28;20029;-58
2021/12/27 07:49:02;;;;;;;16.65;12.15;;;;;;;3.93;100.00;98923.91;5027261;28;20135;-58
2021/12/27 07:51:27;;;;;;;21.40;13.60;;;;;;;4.11;100.00;98930.00;4991452;28;20048;-58
2021/12/27 07:53:52;;;;;;;18.40;12.98;;;;;;;4.19;100.00;98932.22;5009578;28;20158;-58
2021/12/27 07:56:18;;;;;;;19.25;12.93;;;;;;;4.26;100.00;98937.03;5010029;28;20033;-58
2021/12/27 07:58:43;;;;;;;16.70;12.27;;;;;;;4.33;100.00;98927.19;5010537;28;20032;-58
2021/12/27 08:01:08;;;;;;;21.23;13.10;;;;;;;4.39;100.00;98935.56;5009411;28;20185;-58
2021/12/27 08:03:34;;;;;;;22.25;14.07;;;;;;;4.44;100.00;98919.72;5009267;28;20029;-58
2021/12/27 08:05:59;;;;;;;23.10;13.07;;;;;;;4.42;100.00;98913.75;5008068;28;20033;-58
2021/12/27 08:08:24;;;;;;;19.80;13.27;;;;;;;4.38;100.00;98891.41;5010013;28;21022;-58
2021/12/27 08:10:50;;;;;;;23.35;13.20;;;;;;;4.67;100.00;98924.59;5006679;28;20115;-58
2021/12/27 08:13:15;;;;;;;23.88;12.85;;;;;;;4.74;100.00;98909.53;5017946;28;20033;-58
2021/12/27 08:15:41;;;;;;;17.17;12.73;;;;;;;4.79;100.00;98902.34;5029091;28;20922;-58
2021/12/27 08:18:06;;;;;;;15.32;13.18;;;;;;;4.84;100.00;98897.75;5026740;28;20033;-58
2021/12/27 08:20:32;;;;;;;15.15;11.43;;;;;;;4.90;100.00;98900.06;5029925;28;20032;-58
2021/12/27 08:22:57;;;;;;;14.88;11.70;;;;;;;4.95;100.00;98908.44;5029986;28;20825;-58
2021/12/27 08:25:23;;;;;;;17.80;11.38;;;;;;;5.01;100.00;98908.97;5028814;28;20021;-58
2021/12/27 08:27:49;;;;;;;12.77;10.23;;;;;;;5.04;100.00;98903.59;5028991;28;20879;-58
2021/12/27 08:30:14;;;;;;;16.50;12.55;;;;;;;5.08;100.00;98899.09;5028348;28;20031;-58
2021/12/27 08:32:42;;;;;;;17.10;12.27;;;;;;;5.13;100.00;98897.94;5027002;28;20025;-61
2021/12/27 08:35:08;;;;;;;23.67;12.38;;;;;;;5.17;100.00;98892.56;5027359;28;20031;-58
2021/12/27 08:37:34;;;;;;;17.23;12.10;;;;;;;5.20;100.00;98905.44;5027293;28;20025;-58
2021/12/27 08:40:00;;;;;;;18.95;12.27;;;;;;;5.20;100.00;98897.63;5027597;28;20078;-59
2021/12/27 08:42:26;;;;;;;18.25;11.50;;;;;;;5.23;100.00;98894.84;5010029;28;20020;-58
2021/12/27 08:44:52;;;;;;;16.15;11.30;;;;;;;5.04;100.00;98861.97;5026664;28;20021;-58
2021/12/27 08:47:18;;;;;;;15.90;11.65;;;;;;;5.28;100.00;98900.63;5028051;28;20210;-58
2021/12/27 08:49:44;;;;;;;19.83;11.95;;;;;;;5.29;100.00;98891.91;5009666;28;20901;-58
2021/12/27 08:52:10;;;;;;;16.40;12.38;;;;;;;5.31;100.00;98884.84;5027787;28;20468;-58
2021/12/27 08:54:35;;;;;;;17.02;11.90;;;;;;;5.34;100.00;98889.94;5028288;28;20131;-59
2021/12/27 08:57:03;;;;;;;14.30;11.23;;;;;;;5.35;100.00;98897.63;5027587;28;20905;-58
2021/12/27 08:59:28;;;;;;;18.75;12.90;;;;;;;5.37;100.00;98894.97;5028847;28;20135;-58
2021/12/27 09:01:54;;;;;;;18.98;12.30;;;;;;;5.42;100.00;98892.94;5027384;28;20035;-58
2021/12/27 09:04:19;;;;;;;16.45;11.27;;;;;;;5.42;100.00;98893.78;5029677;28;20036;-58
2021/12/27 09:06:44;;;;;;;18.95;11.38;;;;;;;5.42;100.00;98890.34;5026845;28;20903;-58
2021/12/27 09:09:10;;;;;;;16.17;12.25;;;;;;;5.44;100.00;98896.31;5026281;28;20040;-59
2021/12/27 09:11:35;;;;;;;14.30;11.18;;;;;;;5.43;100.00;98894.63;5026040;28;20118;-58
2021/12/27 09:14:01;;;;;;;17.67;11.38;;;;;;;5.44;100.00;98896.31;5026282;28;20020;-58
2021/12/27 09:16:27;;;;;;;20.00;12.05;;;;;;;5.46;100.00;98891.88;5026128;28;20036;-58
2021/12/27 09:18:52;;;;;;;13.52;10.90;;;;;;;5.53;100.00;98883.66;5025645;28;20029;-58
2021/12/27 09:21:18;;;;;;;15.93;11.43;;;;;;;5.66;100.00;98874.22;5026818;28;20133;-58
2021/12/27 09:23:43;;;;;;;18.73;13.05;;;;;;;5.70;100.00;98859.28;5027080;28;20055;-58
2021/12/27 09:26:09;;;;;;;14.20;11.65;;;;;;;5.83;100.00;98868.09;5027597;28;20160;-58
2021/12/27 09:28:34;;;;;;;18.20;11.48;;;;;;;5.90;100.00;98864.25;5027153;28;20025;-58
2021/12/27 09:31:00;;;;;;;16.42;11.20;;;;;;;5.97;100.00;98860.38;5026693;28;20024;-58
2021/12/27 09:33:25;;;;;;;13.40;10.55;;;;;;;6.00;100.00;98860.19;5026839;28;20229;-58
2021/12/27 09:35:51;;;;;;;18.75;10.32;;;;;;;6.03;100.00;98862.63;5024569;28;20032;-58
2021/12/27 09:38:17;;;;;;;18.52;10.98;;;;;;;6.09;100.00;98862.28;5024980;28;20140;-58
2021/12/27 09:40:43;;;;;;;14.23;10.48;;;;;;;6.02;100.00;98847.91;5025293;28;20097;-58
2021/12/27 09:43:08;;;;;;;18.83;11.85;;;;;;;6.23;100.00;98868.47;5023158;28;20034;-58
2021/12/27 09:45:34;;;;;;;16.55;11.43;;;;;;;6.32;100.00;98860.97;5007001;28;20147;-58
2021/12/27 09:48:00;;;;;;;16.70;11.88;;;;;;;6.44;100.00;98862.03;5020959;28;20036;-58
2021/12/27 09:50:29;;;;;;;14.13;11.43;;;;;;;6.58;100.00;98859.47;5020318;28;20123;-58
2021/12/27 09:52:55;;;;;;;14.48;11.52;;;;;;;6.81;100.00;98858.94;5041920;28;20027;-58
2021/12/27 09:55:21;;;;;;;15.20;11.32;;;;;;;6.74;100.00;98815.03;5044140;28;20032;-58
2021/12/27 09:57:46;;;;;;;11.70;10.07;;;;;;;6.79;100.00;98813.00;5042406;28;20028;-59
2021/12/27 10:00:12;;;;;;;15.60;11.73;;;;;;;7.14;100.00;98859.50;5045002;28;20041;-58
2021/12/27 10:02:39;;;;;;;14.43;10.52;;;;;;;7.22;100.00;98853.00;5044267;28;20016;-58
2021/12/27 10:05:06;;;;;;;13.25;9.57;;;;;;;7.13;100.00;98831.72;5043650;28;20035;-58
2021/12/27 10:07:31;;;;;;;13.48;10.15;;;;;;;7.34;100.00;98847.00;5045054;28;20062;-58
2021/12/27 10:09:59;;;;;;;15.88;11.63;;;;;;;7.42;100.00;98852.59;5043857;28;20880;-58
2021/12/27 10:12:28;;;;;;;14.45;10.73;;;;;;;7.51;100.00;98849.41;5044448;28;20179;-58
2021/12/27 10:15:06;;;;;;;14.95;9.90;;;;;;;7.57;100.00;98849.84;5043099;28;20798;-58
2021/12/27 10:17:34;;;;;;;15.13;10.98;;;;;;;7.62;100.00;98857.41;5044507;28;20074;-58
2021/12/27 10:20:21;;;;;;;14.30;9.15;;;;;;;7.67;100.00;98850.13;5044841;28;20032;-58
2021/12/27 10:22:49;;;;;;;15.43;10.23;;;;;;;7.78;100.00;98849.44;5046310;28;20032;-58
2021/12/27 10:25:17;;;;;;;11.70;10.07;;;;;;;7.88;100.00;98843.53;5045836;28;20055;-58
2021/12/27 10:27:42;;;;;;;12.68;8.75;;;;;;;7.98;100.00;98834.16;5046343;28;20020;-58
2021/12/27 10:30:19;;;;;;;12.50;8.70;;;;;;;8.03;100.00;98833.84;5045107;28;20035;-58
2021/12/27 10:33:01;;;;;;;10.02;8.57;;;;;;;8.03;100.00;98826.84;5043238;28;20031;-58
2021/12/27 10:35:47;;;;;;;12.70;8.50;;;;;;;8.02;100.00;98825.16;5043740;28;20043;-58
2021/12/27 10:38:22;;;;;;;10.35;8.48;;;;;;;8.01;100.00;98833.94;5044368;28;20036;-58
2021/12/27 10:40:51;;;;;;;10.30;8.07;;;;;;;8.01;100.00;98833.94;5043867;28;20032;-59
2021/12/27 10:43:30;;;;;;;11.85;8.52;;;;;;;8.03;100.00;98829.47;5044575;28;20914;-59
2021/12/27 10:46:00;;;;;;;12.35;8.48;;;;;;;8.11;100.00;98835.03;5046348;28;20031;-59
2021/12/27 10:48:31;;;;;;;11.38;8.25;;;;;;;8.20;100.00;98823.97;5044216;28;20147;-59
2021/12/27 10:50:57;;;;;;;12.35;8.82;;;;;;;8.32;100.00;98824.97;5028115;28;20202;-58
2021/12/27 10:53:23;;;;;;;10.45;7.93;;;;;;;8.44;100.00;98826.78;5044789;28;20026;-59
2021/12/27 10:55:48;;;;;;;9.98;7.43;;;;;;;8.65;100.00;98827.13;5045700;28;20028;-58
2021/12/27 10:58:29;;;;;;;17.13;8.65;;;;;;;8.86;100.00;98823.03;5028827;28;20024;-58
2021/12/27 11:01:04;;;;;;;9.10;6.82;;;;;;;8.91;100.00;98825.34;5046054;28;20047;-58
2021/12/27 11:03:33;;;;;;;9.10;6.78;;;;;;;8.92;100.00;98816.53;5045356;28;20043;-58
2021/12/27 11:06:02;;;;;;;11.88;6.68;;;;;;;8.94;100.00;98815.50;5043781;28;20032;-58
2021/12/27 11:08:28;;;;;;;7.15;5.85;;;;;;;8.95;100.00;98813.72;5044311;28;20039;-58
2021/12/27 11:10:54;;;;;;;8.38;5.97;;;;;;;8.94;100.00;98815.50;5044504;28;20135;-58
2021/12/27 11:13:20;;;;;;;8.52;6.75;;;;;;;8.96;100.00;98816.22;5044341;28;20020;-58
2021/12/27 11:15:46;;;;;;;11.02;6.18;;;;;;;8.85;100.00;98789.94;5045596;28;20137;-58
2021/12/27 11:18:13;;;;;;;7.88;6.28;;;;;;;8.89;100.00;98807.09;5045610;28;20175;-58
2021/12/27 11:20:43;;;;;;;8.15;6.68;;;;;;;8.91;100.00;98804.38;5060824;28;20039;-58